Terminal Aerodrome Forecast
Issued by NWS

Home | Current Version | Previous Version | Text Only | Print | Product List | Glossary Off
Versions: 1 2 3 4 5 6 7 8 9 10 11 12 13 14 15 16 17

000
FTUS42 KMHX 211739
TAFOAJ
TAF
KOAJ 211739Z 2118/2218 16007KT P6SM VCTS SCT025 BKN030CB
     FM212100 22009KT P6SM VCTS SCT015 BKN025CB
      TEMPO 2122/2124 5SM TSRA BR BKN015CB
     FM220200 36006KT P6SM OVC012
     FM220600 36006KT P6SM SCT007
     FM221400 36010KT P6SM SCT030
      AMD LTD TO CLD VIS AND WIND=

USA.gov is the U.S. government's official web portal to all federal, state and local government web resources and services.